Nearby METAR Reports

Sorted by Distance from Carson Valley Weather Station - Minden, Nevada

 

KMEV - Minden, Nevada, USA
Distance from station: SSW 3mi, 5km
Updated: Sat, 25-May-2019 10:15am PDT
Partly cloudy
Partly cloudy
 Wind from N
Wind: N 17 mph , 28 km/h
Temperature: 57°F , 14°C
Dew Point: 37°F , 3°C
Humidity: 48%
Barometer: 29.87 inHg , 1011.5 hPa
Clouds: Partly cloudy
Visibility: 10 miles , 16 km
Cloud details: Partly cloudy 8500 ft
2019/05/25 17:15 KMEV 251715Z AUTO 35015KT 10SM SCT085 14/03 A2987 RMK AO2
KCXP - Carson City, Nevada, USA
Distance from station: N 10mi, 16km
Updated: Sat, 25-May-2019 10:15am PDT
Partly cloudy
Partly cloudy
 Wind from N
Wind: N 8 mph , 13 km/h, Gust: 15 mph , 24 km/h
Temperature: 55°F , 13°C
Dew Point: 37°F , 3°C
Humidity: 51%
Barometer: 29.86 inHg , 1011.2 hPa
Clouds: Partly cloudy
Visibility: 10 miles , 16 km
Cloud details: Partly cloudy 6500 ft
Partly cloudy 7500 ft
Partly cloudy 9000 ft
2019/05/25 17:15 KCXP 251715Z AUTO 35007G13KT 310V010 10SM SCT065 SCT075 SCT090 13/03 A2986 RMK AO2
 
KTVL - South Lake Tahoe, California, USA
Distance from station: WSW 18mi, 29km
Updated: Sat, 25-May-2019 9:53am PDT
Mostly cloudy
Mostly cloudy
 Wind from S
Wind: S 13 mph , 20 km/h, Gust: 22 mph , 35 km/h
Temperature: 54°F , 12°C
Dew Point: 30°F , -1°C
Humidity: 41%
Barometer: 29.87 inHg , 1011.5 hPa
Clouds: Mostly cloudy
Visibility: 10 miles , 16 km
Cloud details: Partly cloudy 4900 ft
Mostly cloudy 6500 ft
Mostly cloudy 8000 ft
2019/05/25 16:53 KTVL 251653Z AUTO 18011G19KT 10SM SCT049 BKN065 BKN080 12/M01 A2987 RMK AO2 SLP079 T01171011
KTRK - Truckee Tahoe, California, USA
Distance from station: NW 29mi, 46km
Updated: Sat, 25-May-2019 9:45am PDT
Partly cloudy
Partly cloudy
 Wind from calm
Wind: Calm
Temperature: 41°F , 5°C
Dew Point: 37°F , 3°C
Humidity: 87%
Barometer: 29.91 inHg , 1012.9 hPa
Clouds: Partly cloudy
Visibility: 10 miles , 16 km
Cloud details: Partly cloudy 4600 ft
Partly cloudy 6000 ft
2019/05/25 16:45 KTRK 251645Z 00000KT 10SM SCT046 SCT060 05/03 A2991
 
KRNO - Reno, Nevada, USA
Distance from station: N 32mi, 51km
Updated: Sat, 25-May-2019 9:55am PDT
Mostly cloudy
Mostly cloudy
 Wind from N
Wind: N 8 mph , 13 km/h
Temperature: 54°F , 12°C
Dew Point: 39°F , 4°C
Humidity: 58%
Barometer: 29.89 inHg , 1012.2 hPa
Clouds: Mostly cloudy
Visibility: 10 miles , 16 km
Cloud details: Few Clouds 5000 ft
Mostly cloudy 6500 ft
Mostly cloudy 8500 ft
2019/05/25 16:55 KRNO 251655Z 01007KT 10SM FEW050 BKN065 BKN085 12/04 A2989 RMK AO2 RAB16E27 SLP094 MTN TOPS OBSCD DSNT SW SH DSNT NE S AND NW P0000 T01220044
KRTS - Reno/Stead, Nevada, USA
Distance from station: NNW 44mi, 71km
Updated: Sat, 25-May-2019 10:15am PDT
Partly cloudy
Partly cloudy
 Wind from varies
Wind: varies 3 mph , 6 km/h
Temperature: 48°F , 9°C
Dew Point: 37°F , 3°C
Humidity: 66%
Barometer: 29.91 inHg , 1012.9 hPa
Clouds: Partly cloudy
Visibility: 10 miles , 16 km
Cloud details: Few Clouds 2100 ft
Few Clouds 2700 ft
Partly cloudy 9500 ft
2019/05/25 17:15 KRTS 251715Z AUTO VRB03KT 10SM FEW021 FEW027 SCT095 09/03 A2991 RMK AO2
 
KBAN - Bridgeport(Mcmwt, California, USA
Distance from station: SSE 49mi, 79km
Updated: Sat, 25-May-2019 9:52am PDT
Partly cloudy
Partly cloudy
 Wind from SSW
Wind: SSW 13 mph , 20 km/h, Gust: 17 mph , 28 km/h
Temperature: 72°F , 22°C
Dew Point: 27°F , -3°C
Humidity: 19%
Barometer: 29.88 inHg , 1011.9 hPa
Clouds: Partly cloudy
Visibility: 10 miles , 16 km
Cloud details: Partly cloudy 6000 ft
2019/05/25 16:52 KBAN 251652Z AUTO 20011G15KT 10SM SCT060 22/M03 A2988 RMK AO2 SLP015 T02171033 $
KBLU - Emigrant Gap, California, USA
Distance from station: WNW 55mi, 89km
Updated: Sat, 25-May-2019 9:52am PDT
Mostly cloudy
Mostly cloudy
 Wind from S
Wind: S 12 mph , 19 km/h, Gust: 18 mph , 30 km/h
Temperature: 52°F , 11°C
Dew Point: 43°F , 6°C
Humidity: 72%
Barometer: 29.89 inHg , 1012.2 hPa
Clouds: Mostly cloudy
Visibility: 10 miles , 16 km
Cloud details: Partly cloudy 1900 ft
Mostly cloudy 3200 ft
2019/05/25 16:52 KBLU 251652Z AUTO 17010G16KT 10SM SCT019 BKN032 11/06 A2989 RMK AO2 SLP078 T01060061
 
KPVF - Placerville, California, USA
Distance from station: WSW 60mi, 96km
Updated: Sun, 21-Apr-2019 12:35am PDT
NOT Current
Overcast
Overcast
 Wind from ENE
Wind: ENE 3 mph , 6 km/h
Temperature: 46°F , 8°C
Dew Point: 41°F , 5°C
Humidity: 82%
Barometer: 30.01 inHg , 1016.3 hPa
Clouds: Overcast
Visibility: 10 miles , 16 km
Cloud details: Overcast 4400 ft
2019/04/21 07:35 KPVF 210735Z AUTO 07003KT 10SM OVC044 08/05 A3001 RMK AO1
KNFL - Fallon Nas, Nevada, USA
Distance from station: ENE 61mi, 97km
Updated: Sat, 25-May-2019 9:56am PDT
Mostly cloudy
Mostly cloudy
 Wind from SE
Wind: SE 9 mph , 15 km/h
Temperature: 61°F , 16°C
Dew Point: 46°F , 8°C
Humidity: 59%
Barometer: 29.87 inHg , 1011.5 hPa
Clouds: Mostly cloudy
Visibility: 10 miles , 16 km
Cloud details: Partly cloudy 2900 ft
Mostly cloudy 10000 ft
Mostly cloudy 20000 ft
2019/05/25 16:56 KNFL 251656Z 14008KT 10SM SCT029 BKN100 BKN200 16/08 A2987 RMK AO2 SLP089 TCU DSNT ALQDS T01560083
 
KHTH - Hawthorne, Nevada, USA
Distance from station: ESE 68mi, 109km
Updated: Sat, 25-May-2019 10:15am PDT
Clear
Clear
 Wind from varies
Wind: varies 3 mph , 6 km/h
Temperature: 59°F , 15°C
Dew Point: 41°F , 5°C
Humidity: 51%
Barometer: 29.87 inHg , 1011.5 hPa
Clouds: Clear
Visibility: 10 miles , 16 km
2019/05/25 17:15 KHTH 251715Z AUTO VRB03KT 10SM CLR 15/05 A2987 RMK A01
KGOO - Grass Valley, California, USA
Distance from station: W 70mi, 112km
Updated: Sat, 25-May-2019 10:20am PDT
Mostly cloudy
Mostly cloudy
 Wind from SSE
Wind: SSE 6 mph , 9 km/h
Temperature: 57°F , 14°C
Dew Point: 48°F , 9°C
Humidity: 72%
Barometer: 29.84 inHg , 1010.5 hPa
Clouds: Mostly cloudy
Visibility: 10 miles , 16 km
Cloud details: Partly cloudy 1800 ft
Mostly cloudy 2300 ft
Mostly cloudy 3200 ft
2019/05/25 17:20 KGOO 251720Z AUTO 16005KT 10SM SCT018 BKN023 BKN032 14/09 A2984 RMK AO1
 
KAUN - Auburn Muni, California, USA
Distance from station: W 73mi, 118km
Updated: Sat, 25-May-2019 10:15am PDT
Overcast
Overcast
 Wind from SSW
Wind: SSW 3 mph , 6 km/h
Temperature: 59°F , 15°C
Dew Point: 52°F , 11°C
Humidity: 77%
Barometer: 29.83 inHg , 1010.2 hPa
Clouds: Overcast
Visibility: 10 miles , 16 km
Cloud details: Few Clouds 1500 ft
Overcast 2600 ft
2019/05/25 17:15 KAUN 251715Z AUTO 20003KT 10SM FEW015 OVC026 15/11 A2983 RMK A01
KO22 - Columbia, California, USA
Distance from station: SSW 79mi, 127km
Updated: Sat, 25-May-2019 10:15am PDT
Haze, Mostly cloudy
Haze, Mostly cloudy
 Wind from SSE
Wind: SSE 10 mph , 17 km/h
Temperature: 64°F , 18°C
Dew Point: 54°F , 12°C
Humidity: 68%
Barometer: 29.83 inHg , 1010.2 hPa
Summary: Haze
Clouds: Mostly cloudy
Visibility: 6 miles , 10 km
Cloud details: Few Clouds 2200 ft
Mostly cloudy 3900 ft
Mostly cloudy 4900 ft
2019/05/25 17:15 KO22 251715Z AUTO 16009KT 6SM HZ FEW022 BKN039 BKN049 18/12 A2983 RMK A01
 
KLHM - Lincoln, California, USA
Distance from station: W 88mi, 141km
Updated: Sat, 25-May-2019 10:15am PDT
Overcast
Overcast
 Wind from SSE
Wind: SSE 5 mph , 7 km/h
Temperature: 61°F , 16°C
Dew Point: 50°F , 10°C
Humidity: 68%
Barometer: 29.82 inHg , 1009.8 hPa
Clouds: Overcast
Visibility: 10 miles , 16 km
Cloud details: Partly cloudy 1900 ft
Overcast 3600 ft
2019/05/25 17:15 KLHM 251715Z AUTO 16004KT 10SM SCT019 OVC036 16/10 A2982 RMK AO1
KBAB - Beale Afb/Marysv, California, USA
Distance from station: W 91mi, 147km
Updated: Sat, 25-May-2019 9:58am PDT
Overcast
Overcast
 Wind from S
Wind: S 5 mph , 7 km/h
Temperature: 59°F , 15°C
Dew Point: 52°F , 11°C
Humidity: 77%
Barometer: 29.81 inHg , 1009.5 hPa
Clouds: Overcast
Visibility: 10 miles , 16 km
Cloud details: Few Clouds 1500 ft
Overcast 3600 ft
2019/05/25 16:58 KBAB 251658Z AUTO 19004KT 10SM FEW015 OVC036 15/11 A2981 RMK AO2 SLP097 T01530111 $
 
KMHR - Mather Field, California, USA
Distance from station: WSW 91mi, 147km
Updated: Sat, 25-May-2019 9:45am PDT
Mostly cloudy
Mostly cloudy
 Wind from SE
Wind: SE 7 mph , 11 km/h, Gust: 13 mph , 20 km/h
Temperature: 59°F , 15°C
Dew Point: 52°F , 11°C
Humidity: 77%
Barometer: 29.81 inHg , 1009.5 hPa
Clouds: Mostly cloudy
Visibility: 10 miles , 16 km
Cloud details: Mostly cloudy 2000 ft
2019/05/25 16:45 KMHR 251645Z 13006G11KT 10SM BKN020 15/11 A2981
KLOL - Lovelock, Nevada, USA
Distance from station: NE 94mi, 151km
Updated: Sat, 25-May-2019 9:53am PDT
Mostly cloudy
Mostly cloudy
 Wind from varies
Wind: varies 3 mph , 6 km/h
Temperature: 57°F , 14°C
Dew Point: 41°F , 5°C
Humidity: 55%
Barometer: 29.87 inHg , 1011.5 hPa
Clouds: Mostly cloudy
Visibility: 10 miles , 16 km
Cloud details: Mostly cloudy 3500 ft
Mostly cloudy 4300 ft
2019/05/25 16:53 KLOL 251653Z AUTO VRB03KT 10SM BKN035 BKN043 14/05 A2987 RMK AO2 SLP096 T01390050
 
KMCC - Mcclellan Afb, California, USA
Distance from station: WSW 94mi, 151km
Updated: Sat, 25-May-2019 10:20am PDT
Overcast
Overcast
 Wind from SSW
Wind: SSW 9 mph , 15 km/h
Temperature: 63°F , 17°C
Dew Point: 50°F , 10°C
Humidity: 64%
Barometer: 29.83 inHg , 1010.2 hPa
Clouds: Overcast
Visibility: 9 miles , 14 km
Cloud details: Overcast 2100 ft
2019/05/25 17:20 KMCC 251720Z AUTO 21008KT 9SM OVC021 17/10 A2983 RMK AO2
KMYV - Marysville, California, USA
Distance from station: W 99mi, 159km
Updated: Sat, 25-May-2019 10:14am PDT
Overcast
Overcast
 
Temperature: 61°F , 16°C
Dew Point: 52°F , 11°C
Humidity: 72%
Barometer: 29.83 inHg , 1010.2 hPa
Clouds: Overcast
Visibility: 10 miles , 16 km
Cloud details: Partly cloudy 1500 ft
Overcast 3900 ft
2019/05/25 17:14 KMYV 251714Z AUTO 10SM SCT015 OVC039 16/11 A2983 RMK AO2 T01560111
 
KSVE - Susanville Muni, California, USA
Distance from station: NNW 102mi, 164km
Updated: Sat, 25-May-2019 10:35am PDT
Mostly cloudy
Mostly cloudy
 Wind from NNE
Wind: NNE 3 mph , 6 km/h
Temperature: 52°F , 11°C
Dew Point: 39°F , 4°C
Humidity: 62%
Barometer: 29.90 inHg , 1012.5 hPa
Clouds: Mostly cloudy
Visibility: 10 miles , 16 km
Cloud details: Few Clouds 3700 ft
Mostly cloudy 4400 ft
Mostly cloudy 6000 ft
2019/05/25 17:35 KSVE 251735Z AUTO 03003KT 10SM FEW037 BKN044 BKN060 11/04 A2990 RMK AO2
KSAC - Sacramento, California, USA
Distance from station: WSW 103mi, 165km
Updated: Sat, 25-May-2019 10:16am PDT
Overcast
Overcast
 Wind from SW
Wind: SW 10 mph , 17 km/h
Temperature: 57°F , 14°C
Dew Point: 52°F , 11°C
Humidity: 82%
Barometer: 29.83 inHg , 1010.2 hPa
Clouds: Overcast
Visibility: 10 miles , 16 km
Cloud details: Overcast 1400 ft
2019/05/25 17:16 KSAC 251716Z 23009KT 10SM OVC014 14/11 A2983 RMK AO2 T01390106
 
KSMF - Sacramento/Metro, California, USA
Distance from station: WSW 104mi, 167km
Updated: Sat, 25-May-2019 10:19am PDT
Overcast
Overcast
 Wind from SSE
Wind: SSE 8 mph , 13 km/h
Temperature: 57°F , 14°C
Dew Point: 52°F , 11°C
Humidity: 82%
Barometer: 29.81 inHg , 1009.5 hPa
Clouds: Overcast
Visibility: 10 miles , 16 km
Cloud details: Overcast 1000 ft
2019/05/25 17:19 KSMF 251719Z 16007KT 10SM OVC010 14/11 A2981 RMK AO2 T01390111
KOVE - Oroville, California, USA
Distance from station: WNW 106mi, 171km
Updated: Sat, 25-May-2019 9:53am PDT
Mostly cloudy
Mostly cloudy
 Wind from SSE
Wind: SSE 5 mph , 7 km/h
Temperature: 61°F , 16°C
Dew Point: 54°F , 12°C
Humidity: 77%
Barometer: 29.83 inHg , 1010.2 hPa
Clouds: Mostly cloudy
Visibility: 10 miles , 16 km
Cloud details: Few Clouds 1400 ft
Mostly cloudy 4500 ft
Mostly cloudy 5500 ft
2019/05/25 16:53 KOVE 251653Z AUTO 15004KT 10SM FEW014 BKN045 BKN055 16/12 A2983 RMK AO2 SLP103 T01610122 $
 
KMMH - Mammoth/June Lak, California, USA
Distance from station: SSE 110mi, 177km
Updated: Sat, 25-May-2019 10:15am PDT
Clear
Clear
 Wind from SSW
Wind: SSW 13 mph , 20 km/h, Gust: 16 mph , 26 km/h
Temperature: 54°F , 12°C
Dew Point: 21°F , -6°C
Humidity: 28%
Barometer: 29.93 inHg , 1013.5 hPa
Clouds: Clear
Visibility: 10 miles , 16 km
2019/05/25 17:15 KMMH 251715Z AUTO 20011G14KT 10SM CLR 12/M06 A2993 RMK AO2 T01161061
KSCK - Stockton, California, USA
Distance from station: SW 114mi, 183km
Updated: Sat, 25-May-2019 9:55am PDT
Clear
Clear
 Wind from W
Wind: W 13 mph , 20 km/h, Gust: 20 mph , 31 km/h
Temperature: 66°F , 19°C
Dew Point: 46°F , 8°C
Humidity: 49%
Barometer: 29.82 inHg , 1009.8 hPa
Clouds: Clear
Visibility: 10 miles , 16 km
2019/05/25 16:55 KSCK 251655Z 28011G17KT 10SM CLR 19/08 A2982 RMK AO2 SLP097 T01940083
 
KEDU - Davis, California, USA
Distance from station: WSW 116mi, 187km
Updated: Sat, 25-May-2019 10:20am PDT
Overcast
Overcast
 Wind from WNW
Wind: WNW 5 mph , 7 km/h
Temperature: 61°F , 16°C
Dew Point: 55°F , 13°C
Humidity: 83%
Barometer: 29.83 inHg , 1010.2 hPa
Clouds: Overcast
Visibility: 10 miles , 16 km
Cloud details: Few Clouds 800 ft
Overcast 1200 ft
2019/05/25 17:20 KEDU 251720Z AUTO 30004KT 10SM FEW008 OVC012 16/13 A2983 RMK AO1
KMOD - Modesto, California, USA
Distance from station: SW 119mi, 191km
Updated: Sat, 25-May-2019 10:11am PDT
Partly cloudy
Partly cloudy
 Wind from NW
Wind: NW 5 mph , 7 km/h
Temperature: 66°F , 19°C
Dew Point: 48°F , 9°C
Humidity: 52%
Barometer: 29.82 inHg , 1009.8 hPa
Clouds: Partly cloudy
Visibility: 10 miles , 16 km
Cloud details: Partly cloudy 2800 ft
2019/05/25 17:11 KMOD 251711Z 31004KT 10SM SCT028 19/09 A2982 RMK AO2 T01890094
 
KMER - Merced/Castle Af, California, USA
Distance from station: SSW 123mi, 198km
Updated: Sat, 25-May-2019 9:45am PDT
Clear
Clear
 Wind from W
Wind: W 7 mph , 11 km/h
Temperature: 70°F , 21°C
Dew Point: 54°F , 12°C
Humidity: 57%
Barometer: 29.83 inHg , 1010.2 hPa
Clouds: Clear
Visibility: 10 miles , 16 km
2019/05/25 16:45 KMER 251645Z 27006KT 10SM SKC 21/12 A2983
KCIC - Chico Municipal, California, USA
Distance from station: WNW 124mi, 199km
Updated: Sat, 25-May-2019 8:55am PDT
NOT Current
Mostly cloudy
Mostly cloudy
 Wind from W
Wind: W 7 mph , 11 km/h
Temperature: 63°F , 17°C
Dew Point: 54°F , 12°C
Humidity: 73%
Barometer: 29.83 inHg , 1010.2 hPa
Clouds: Mostly cloudy
Visibility: 40 miles , 64 km
Cloud details: Few Clouds 1500 ft
Partly cloudy 4700 ft
Mostly cloudy 12000 ft
2019/05/25 15:55 KCIC 251555Z 27006KT 40SM FEW015 SCT047 BKN120 17/12 A2983
 
KMCE - Merced, California, USA
Distance from station: SSW 128mi, 207km
Updated: Sat, 25-May-2019 9:53am PDT
Clear
Clear
 Wind from WSW
Wind: WSW 8 mph , 13 km/h
Temperature: 66°F , 19°C
Dew Point: 50°F , 10°C
Humidity: 56%
Barometer: 29.81 inHg , 1009.5 hPa
Clouds: Clear
Visibility: 10 miles , 16 km
2019/05/25 16:53 KMCE 251653Z AUTO 25007KT 10SM CLR 19/10 A2981 RMK AO2 SLP095 T01890100
KVCB - Vacaville, California, USA
Distance from station: WSW 128mi, 207km
Updated: Sat, 25-May-2019 10:30am PDT
Overcast
Overcast
 Wind from WSW
Wind: WSW 5 mph , 7 km/h
Temperature: 57°F , 14°C
Dew Point: 52°F , 11°C
Humidity: 82%
Barometer: 29.84 inHg , 1010.5 hPa
Clouds: Overcast
Visibility: 10 miles , 16 km
Cloud details: Overcast 1400 ft
2019/05/25 17:30 KVCB 251730Z AUTO 24004KT 10SM OVC014 14/11 A2984 RMK AO2 T01390111
 
KSUU - Travis Afb/Fairf, California, USA
Distance from station: WSW 130mi, 209km
Updated: Sat, 25-May-2019 9:58am PDT
Overcast
Overcast
 Wind from WSW
Wind: WSW 9 mph , 15 km/h
Temperature: 59°F , 15°C
Dew Point: 48°F , 9°C
Humidity: 68%
Barometer: 29.83 inHg , 1010.2 hPa
Clouds: Overcast
Visibility: 10 miles , 16 km
Cloud details: Overcast 1800 ft
2019/05/25 16:58 KSUU 251658Z AUTO 25008KT 10SM OVC018 15/09 A2983 RMK AO2 SLP108 T01480094 $
KBIH - Bishop, California, USA
Distance from station: SE 137mi, 221km
Updated: Sat, 25-May-2019 9:56am PDT
Clear
Clear
 Wind from varies
Wind: varies 5 mph , 7 km/h
Temperature: 64°F , 18°C
Dew Point: 37°F , 3°C
Humidity: 37%
Barometer: 29.83 inHg , 1010.2 hPa
Clouds: Clear
Visibility: 10 miles , 16 km
2019/05/25 16:56 KBIH 251656Z AUTO VRB04KT 10SM CLR 18/03 A2983 RMK AO2 SLP066 T01780033
 
KMAE - Madera, California, USA
Distance from station: S 144mi, 231km
Updated: Sat, 25-May-2019 9:53am PDT
Clear
Clear
 Wind from calm
Wind: Calm
Temperature: 73°F , 23°C
Dew Point: 57°F , 14°C
Humidity: 57%
Barometer: 29.82 inHg , 1009.8 hPa
Clouds: Clear
Visibility: 10 miles , 16 km
2019/05/25 16:53 KMAE 251653Z AUTO 00000KT 10SM CLR 23/14 A2982 RMK AO2 SLP095 T02280144
KCCR - Concord, California, USA
Distance from station: WSW 145mi, 233km
Updated: Sat, 25-May-2019 10:00am PDT
Overcast
Overcast
 Wind from SSW
Wind: SSW 10 mph , 17 km/h
Temperature: 61°F , 16°C
Dew Point: 45°F , 7°C
Humidity: 55%
Barometer: 29.84 inHg , 1010.5 hPa
Clouds: Overcast
Visibility: 10 miles , 16 km
Cloud details: Overcast 2700 ft
2019/05/25 17:00 KCCR 251700Z 21009KT 10SM OVC027 16/07 A2984 RMK AO2 T01610072
 
KLVK - Livermore, California, USA
Distance from station: SW 146mi, 236km
Updated: Sat, 25-May-2019 9:53am PDT
Clear
Clear
 Wind from SSW
Wind: SSW 12 mph , 19 km/h
Temperature: 59°F , 15°C
Dew Point: 45°F , 7°C
Humidity: 59%
Barometer: 29.84 inHg , 1010.5 hPa
Clouds: Clear
Visibility: 10 miles , 16 km
2019/05/25 16:53 KLVK 251653Z 21010KT 10SM CLR 15/07 A2984 RMK AO2 SLP103 T01500072
KAPC - Napa, California, USA
Distance from station: WSW 150mi, 241km
Updated: Sat, 25-May-2019 9:54am PDT
Mostly cloudy
Mostly cloudy
 Wind from S
Wind: S 6 mph , 9 km/h
Temperature: 57°F , 14°C
Dew Point: 50°F , 10°C
Humidity: 77%
Barometer: 29.83 inHg , 1010.2 hPa
Clouds: Mostly cloudy
Visibility: 10 miles , 16 km
Cloud details: Mostly cloudy 3300 ft
2019/05/25 16:54 KAPC 251654Z 19005KT 10SM BKN033 14/10 A2983 RMK AO2 SLP094 T01390100
 
KRBL - Red Bluff, California, USA
Distance from station: WNW 155mi, 249km
Updated: Sat, 25-May-2019 9:54am PDT
Clear
Clear
 Wind from N
Wind: N 9 mph , 15 km/h
Temperature: 70°F , 21°C
Dew Point: 43°F , 6°C
Humidity: 38%
Barometer: 29.82 inHg , 1009.8 hPa
Clouds: Clear
Visibility: 10 miles , 16 km
2019/05/25 16:54 KRBL 251654Z AUTO 36008KT 10SM CLR 21/06 A2982 RMK AO2 SLP095 T02060056
KFAT - Fresno, California, USA
Distance from station: S 156mi, 251km
Updated: Sat, 25-May-2019 9:53am PDT
Few Clouds
Few Clouds
 Wind from SE
Wind: SE 12 mph , 19 km/h
Temperature: 72°F , 22°C
Dew Point: 55°F , 13°C
Humidity: 57%
Barometer: 29.81 inHg , 1009.5 hPa
Clouds: Few Clouds
Visibility: 9 miles , 14 km
Cloud details: Few Clouds 25000 ft
2019/05/25 16:53 KFAT 251653Z 13010KT 9SM FEW250 22/13 A2981 RMK AO2 SLP092 CU OMTNS N-E T02170133
 
KTPH - Tonopah, Nevada, USA
Distance from station: ESE 158mi, 254km
Updated: Sat, 25-May-2019 9:56am PDT
Light rain, Overcast
Light rain, Overcast
 Wind from SE
Wind: SE 6 mph , 9 km/h
Temperature: 45°F , 7°C
Wind Chill: 42°F , 6°C
Dew Point: 39°F , 4°C
Humidity: 81%
Barometer: 29.95 inHg , 1014.2 hPa
Summary: Light rain
Clouds: Overcast
Visibility: 7 miles , 11 km
Cloud details: Mostly cloudy 3800 ft
Overcast 4900 ft
2019/05/25 16:56 KTPH 251656Z AUTO 13005KT 7SM -RA BKN038 OVC049 07/04 A2995 RMK AO2 RAB21 SLP114 P0004 T00720044
KFCH - Fresno Chandler, California, USA
Distance from station: S 161mi, 258km
Updated: Sat, 25-May-2019 10:15am PDT
Clear
Clear
 Wind from S
Wind: S 8 mph , 13 km/h
Temperature: 73°F , 23°C
Dew Point: 57°F , 14°C
Humidity: 57%
Barometer: 29.81 inHg , 1009.5 hPa
Clouds: Clear
Visibility: 10 miles , 16 km
2019/05/25 17:15 KFCH 251715Z AUTO 17007KT 10SM CLR 23/14 A2981 RMK A01
 
KHWD - Hayward, California, USA
Distance from station: SW 161mi, 259km
Updated: Sat, 25-May-2019 9:54am PDT
Mostly cloudy
Mostly cloudy
 Wind from SSW
Wind: SSW 6 mph , 9 km/h
Temperature: 57°F , 14°C
Dew Point: 45°F , 7°C
Humidity: 63%
Barometer: 29.86 inHg , 1011.2 hPa
Clouds: Mostly cloudy
Visibility: 10 miles , 16 km
Cloud details: Mostly cloudy 2600 ft
2019/05/25 16:54 KHWD 251654Z 21005KT 10SM BKN026 14/07 A2986 RMK AO2 SLP120 T01390072
KOAK - Oakland, California, USA
Distance from station: SW 164mi, 264km
Updated: Sat, 25-May-2019 9:53am PDT
Mostly cloudy
Mostly cloudy
 Wind from SSW
Wind: SSW 10 mph , 17 km/h
Temperature: 61°F , 16°C
Dew Point: 46°F , 8°C
Humidity: 59%
Barometer: 29.87 inHg , 1011.5 hPa
Clouds: Mostly cloudy
Visibility: 10 miles , 16 km
Cloud details: Few Clouds 1400 ft
Mostly cloudy 2000 ft
2019/05/25 16:53 KOAK 251653Z 21009KT 10SM FEW014 BKN020 16/08 A2987 RMK AO2 SLP115 T01560083
 
KWMC - Winnemucca, Nevada, USA
Distance from station: NE 164mi, 264km
Updated: Sat, 25-May-2019 9:56am PDT
Mostly cloudy
Mostly cloudy
 Wind from E
Wind: E 8 mph , 13 km/h
Temperature: 52°F , 11°C
Dew Point: 45°F , 7°C
Humidity: 77%
Barometer: 29.89 inHg , 1012.2 hPa
Clouds: Mostly cloudy
Visibility: 10 miles , 16 km
Cloud details: Mostly cloudy 1900 ft
Mostly cloudy 2500 ft
Mostly cloudy 8500 ft
2019/05/25 16:56 KWMC 251656Z AUTO 08007KT 10SM BKN019 BKN025 BKN085 11/07 A2989 RMK AO2 SLP101 T01110067 TSNO
KDVO - Novato/Gnoss Fld, California, USA
Distance from station: WSW 165mi, 265km
Updated: Sat, 25-May-2019 10:15am PDT
Clear
Clear
 Wind from calm
Wind: Calm
Temperature: 63°F , 17°C
Dew Point: 50°F , 10°C
Humidity: 64%
Barometer: 29.83 inHg , 1010.2 hPa
Clouds: Clear
Visibility: 10 miles , 16 km
2019/05/25 17:15 KDVO 251715Z AUTO 00000KT 10SM CLR 17/10 A2983 RMK AO2
 
KO69 - Petaluma, California, USA
Distance from station: WSW 165mi, 265km
Updated: Sat, 25-May-2019 10:15am PDT
Clear
Clear
 Wind from calm
Wind: Calm
Temperature: 61°F , 16°C
Dew Point: 52°F , 11°C
Humidity: 72%
Barometer: 29.83 inHg , 1010.2 hPa
Clouds: Clear
Visibility: 10 miles , 16 km
2019/05/25 17:15 KO69 251715Z AUTO 00000KT 10SM CLR 16/11 A2983 RMK A01
KRHV - San Jose/Reid, California, USA
Distance from station: SW 165mi, 265km
Updated: Sat, 25-May-2019 9:47am PDT
Partly cloudy
Partly cloudy
 Wind from varies
Wind: varies 6 mph , 9 km/h
Temperature: 61°F , 16°C
Dew Point: 48°F , 9°C
Humidity: 63%
Barometer: 29.86 inHg , 1011.2 hPa
Clouds: Partly cloudy
Visibility: 10 miles , 16 km
Cloud details: Partly cloudy 3000 ft
2019/05/25 16:47 KRHV 251647Z VRB05KT 10SM SCT030 16/09 A2986
 
KSJC - San Jose, California, USA
Distance from station: SW 166mi, 267km
Updated: Sat, 25-May-2019 9:53am PDT
Partly cloudy
Partly cloudy
 Wind from WSW
Wind: WSW 3 mph , 6 km/h
Temperature: 61°F , 16°C
Dew Point: 46°F , 8°C
Humidity: 59%
Barometer: 29.85 inHg , 1010.8 hPa
Clouds: Partly cloudy
Visibility: 10 miles , 16 km
Cloud details: Few Clouds 1400 ft
Partly cloudy 4300 ft
2019/05/25 16:53 KSJC 251653Z 24003KT 10SM FEW014 SCT043 16/08 A2985 RMK AO2 SLP109 T01560083
KE16 - San Martin, California, USA
Distance from station: SW 169mi, 273km
Updated: Sun, 19-May-2019 10:45am PDT
NOT Current
Partly cloudy
Partly cloudy
 Wind from SE
Wind: SE 10 mph , 17 km/h
Temperature: 54°F , 12°C
Dew Point: 50°F , 10°C
Humidity: 88%
Barometer: 29.83 inHg , 1010.2 hPa
Clouds: Partly cloudy
Visibility: 10 miles , 16 km
Cloud details: Few Clouds 4800 ft
Partly cloudy 5500 ft
2019/05/19 17:45 KE16 191745Z AUTO 13009KT 10SM FEW048 SCT055 12/10 A2983 RMK AO2
 
KPAO - Palo Alto, California, USA
Distance from station: SW 169mi, 273km
Updated: Sat, 25-May-2019 9:47am PDT
Partly cloudy
Partly cloudy
 Wind from WSW
Wind: WSW 8 mph , 13 km/h
Temperature: 61°F , 16°C
Dew Point: 45°F , 7°C
Humidity: 55%
Barometer: 29.87 inHg , 1011.5 hPa
Clouds: Partly cloudy
Visibility: 10 miles , 16 km
Cloud details: Partly cloudy 2000 ft
2019/05/25 16:47 KPAO 251647Z 25007KT 10SM SCT020 16/07 A2987
KNUQ - Moffett Nas/Mtn, California, USA
Distance from station: SW 170mi, 273km
Updated: Sat, 25-May-2019 9:56am PDT
Clear
Clear
 Wind from W
Wind: W 10 mph , 17 km/h
Temperature: 61°F , 16°C
Dew Point: 45°F , 7°C
Humidity: 55%
Barometer: 29.86 inHg , 1011.2 hPa
Clouds: Clear
Visibility: 10 miles , 16 km
2019/05/25 16:56 KNUQ 251656Z 28009KT 10SM CLR 16/07 A2986 RMK AO2 SLP114 T01610072
 
KRDD - Redding, California, USA
Distance from station: NW 171mi, 275km
Updated: Sat, 25-May-2019 9:53am PDT
Clear
Clear
 Wind from NNW
Wind: NNW 38 mph , 61 km/h, Gust: 64 mph , 104 km/h
Temperature: 68°F , 20°C
Dew Point: 41°F , 5°C
Humidity: 38%
Barometer: 29.81 inHg , 1009.5 hPa
Clouds: Clear
Visibility: 10 miles , 16 km
2019/05/25 16:53 KRDD 251653Z AUTO 34033G56KT 10SM CLR 20/05 A2981 RMK AO2 PK WND 33056/1557 SLP089 T02000050 $
KSTS - Santa Rosa, California, USA
Distance from station: WSW 171mi, 275km
Updated: Sat, 25-May-2019 9:53am PDT
Few Clouds
Few Clouds
 Wind from calm
Wind: Calm
Temperature: 61°F , 16°C
Dew Point: 46°F , 8°C
Humidity: 59%
Barometer: 29.81 inHg , 1009.5 hPa
Clouds: Few Clouds
Visibility: 10 miles , 16 km
Cloud details: Few Clouds 1200 ft
2019/05/25 16:53 KSTS 251653Z 00000KT 10SM FEW012 16/08 A2981 RMK AO2 SLP088 T01560083
 
KSQL - San Carlos Airpo, California, USA
Distance from station: SW 173mi, 278km
Updated: Sat, 25-May-2019 9:47am PDT
Partly cloudy
Partly cloudy
 Wind from SW
Wind: SW 17 mph , 28 km/h
Temperature: 59°F , 15°C
Dew Point: 45°F , 7°C
Humidity: 59%
Barometer: 29.87 inHg , 1011.5 hPa
Clouds: Partly cloudy
Visibility: 9 miles , 14 km
Cloud details: Partly cloudy 2000 ft
2019/05/25 16:47 KSQL 251647Z 23015KT 9SM SCT020 15/07 A2987
KCVH - Hollister Muni, California, USA
Distance from station: SSW 174mi, 280km
Updated: Sat, 25-May-2019 10:15am PDT
Mostly cloudy
Mostly cloudy
 Wind from WSW
Wind: WSW 15 mph , 24 km/h
Temperature: 59°F , 15°C
Dew Point: 48°F , 9°C
Humidity: 68%
Barometer: 29.89 inHg , 1012.2 hPa
Clouds: Mostly cloudy
Visibility: 9 miles , 14 km
Cloud details: Mostly cloudy 2600 ft
2019/05/25 17:15 KCVH 251715Z AUTO 24013KT 9SM BKN026 15/09 A2989 RMK A01
 
KSFO - San Francisco, California, USA
Distance from station: SW 174mi, 280km
Updated: Sat, 25-May-2019 9:56am PDT
Partly cloudy
Partly cloudy
 Wind from SW
Wind: SW 9 mph , 15 km/h
Temperature: 59°F , 15°C
Dew Point: 46°F , 8°C
Humidity: 63%
Barometer: 29.85 inHg , 1010.8 hPa
Clouds: Partly cloudy
Visibility: 9 miles , 14 km
Cloud details: Few Clouds 1700 ft
Partly cloudy 2300 ft
Partly cloudy 3000 ft
2019/05/25 16:56 KSFO 251656Z 23008KT 9SM FEW017 SCT023 SCT030 15/08 A2985 RMK AO2 SLP107 T01500083
KAAT - Alturas, California, USA
Distance from station: NNW 175mi, 281km
Updated: Sat, 25-May-2019 9:55am PDT
Partly cloudy
Partly cloudy
 Wind from varies
Wind: varies 7 mph , 11 km/h
Temperature: 48°F , 9°C
Wind Chill: 45°F , 7°C
Dew Point: 39°F , 4°C
Humidity: 71%
Barometer: 29.91 inHg , 1012.9 hPa
Clouds: Partly cloudy
Visibility: 10 miles , 16 km
Cloud details: Partly cloudy 1900 ft
2019/05/25 16:55 KAAT 251655Z AUTO VRB06KT 10SM SCT019 09/04 A2991 RMK AO2 SLP112 T00890044
 
KBAM - Battle Mtn (vor), Nevada, USA
Distance from station: NE 182mi, 294km
Updated: Sat, 25-May-2019 10:15am PDT
Clear
Clear
 Wind from NE
Wind: NE 3 mph , 6 km/h
Temperature: 50°F , 10°C
Dew Point: 43°F , 6°C
Humidity: 76%
Barometer: 29.91 inHg , 1012.9 hPa
Clouds: Clear
Visibility: 10 miles , 16 km
2019/05/25 17:15 KBAM 251715Z AUTO 05003KT 10SM CLR 10/06 A2991 RMK AO1
KHAF - Half Moon Bay, California, USA
Distance from station: SW 184mi, 296km
Updated: Sat, 25-May-2019 10:20am PDT
Haze, Mostly cloudy
Haze, Mostly cloudy
 Wind from W
Wind: W 3 mph , 6 km/h
Temperature: 55°F , 13°C
Dew Point: 48°F , 9°C
Humidity: 77%
Barometer: 29.87 inHg , 1011.5 hPa
Summary: Haze
Clouds: Mostly cloudy
Visibility: 6 miles , 10 km
Cloud details: Mostly cloudy 2200 ft
2019/05/25 17:20 KHAF 251720Z AUTO 26003KT 6SM HZ BKN022 13/09 A2987 RMK AO2
 
KWVI - Watsonville, California, USA
Distance from station: SW 184mi, 296km
Updated: Sat, 25-May-2019 9:53am PDT
Overcast
Overcast
 Wind from varies
Wind: varies 5 mph , 7 km/h
Temperature: 57°F , 14°C
Dew Point: 48°F , 9°C
Humidity: 72%
Barometer: 29.88 inHg , 1011.9 hPa
Clouds: Overcast
Visibility: 10 miles , 16 km
Cloud details: Overcast 2400 ft
2019/05/25 16:53 KWVI 251653Z AUTO VRB04KT 10SM OVC024 14/09 A2988 RMK AO2 SLP119 T01440094
KUKI - Ukiah, California, USA
Distance from station: W 187mi, 300km
Updated: Sat, 25-May-2019 9:56am PDT
Clear
Clear
 Wind from calm
Wind: Calm
Temperature: 59°F , 15°C
Dew Point: 41°F , 5°C
Humidity: 51%
Barometer: 29.82 inHg , 1009.8 hPa
Clouds: Clear
Visibility: 10 miles , 16 km
2019/05/25 16:56 KUKI 251656Z AUTO 00000KT 10SM CLR 15/05 A2982 RMK AO2 SLP093 T01500050
 
KHJO - Hanford, California, USA
Distance from station: S 188mi, 303km
Updated: Sat, 25-May-2019 9:53am PDT
Clear
Clear
 Wind from varies
Wind: varies 5 mph , 7 km/h
Temperature: 73°F , 23°C
Dew Point: 57°F , 14°C
Humidity: 57%
Barometer: 29.82 inHg , 1009.8 hPa
Clouds: Clear
Visibility: 9 miles , 14 km
2019/05/25 16:53 KHJO 251653Z AUTO VRB04KT 9SM CLR 23/14 A2982 RMK AO2 SLP098 T02280139
KNLC - Lemoore Nas/Reev, California, USA
Distance from station: S 188mi, 303km
Updated: Sat, 25-May-2019 9:56am PDT
Clear
Clear
 Wind from ESE
Wind: ESE 12 mph , 19 km/h
Temperature: 75°F , 24°C
Dew Point: 55°F , 13°C
Humidity: 50%
Barometer: 29.80 inHg , 1009.1 hPa
Clouds: Clear
Visibility: 10 miles , 16 km
2019/05/25 16:56 KNLC 251656Z AUTO 12010KT 10SM CLR 24/13 A2980 RMK AO2 SLP089 T02390128
 
KVIS - Visalia Muni, California, USA
Distance from station: S 189mi, 304km
Updated: Sat, 25-May-2019 12:56am PDT
NOT Current
Clear
Clear
 Wind from calm
Wind: Calm
Temperature: 61°F , 16°C
Dew Point: 55°F , 13°C
Humidity: 83%
Barometer: 29.87 inHg , 1011.5 hPa
Clouds: Clear
Visibility: 10 miles , 16 km
2019/05/25 07:56 KVIS 250756Z AUTO 00000KT 10SM CLR 16/13 A2987 RMK AO2 SLP122 T01560133 402560111
KSNS - Salinas, California, USA
Distance from station: SSW 193mi, 311km
Updated: Sat, 25-May-2019 9:53am PDT
Overcast
Overcast
 Wind from W
Wind: W 7 mph , 11 km/h
Temperature: 57°F , 14°C
Dew Point: 48°F , 9°C
Humidity: 72%
Barometer: 29.90 inHg , 1012.5 hPa
Clouds: Overcast
Visibility: 8 miles , 13 km
Cloud details: Overcast 1900 ft
2019/05/25 16:53 KSNS 251653Z 26006KT 8SM OVC019 14/09 A2990 RMK AO2 SLP132 T01440094
 
K05U - Eureka, Nevada, USA
Distance from station: ENE 203mi, 326km
Updated: Sat, 25-May-2019 10:15am PDT
Partly cloudy
Partly cloudy
 Wind from calm
Wind: Calm
Temperature: 45°F , 7°C
Dew Point: 37°F , 3°C
Humidity: 76%
Barometer: 29.96 inHg , 1014.6 hPa
Clouds: Partly cloudy
Visibility: 10 miles , 16 km
Cloud details: Few Clouds 1300 ft
Few Clouds 2000 ft
Partly cloudy 9000 ft
2019/05/25 17:15 K05U 251715Z AUTO 00000KT 10SM FEW013 FEW020 SCT090 07/03 A2996 RMK A01
KP68 - Eureka, Nevada, USA
Distance from station: ENE 203mi, 326km
Updated: Sat, 25-May-2019 9:53am PDT

 Wind from calm
Wind: Calm
Temperature: 41°F , 5°C
Dew Point: 36°F , 2°C
Humidity: 81%
Barometer: 29.93 inHg , 1013.5 hPa
2019/05/25 16:53 KP68 251653Z AUTO 00000KT 05/02 A2993 RMK AO1 SLP105 P0002 T00500022
 
KMRY - Monterey, California, USA
Distance from station: SW 206mi, 331km
Updated: Sat, 25-May-2019 9:54am PDT
Overcast
Overcast
 Wind from W
Wind: W 10 mph , 17 km/h
Temperature: 55°F , 13°C
Dew Point: 46°F , 8°C
Humidity: 72%
Barometer: 29.91 inHg , 1012.9 hPa
Clouds: Overcast
Visibility: 10 miles , 16 km
Cloud details: Overcast 2300 ft
2019/05/25 16:54 KMRY 251654Z 28009KT 10SM OVC023 13/08 A2991 RMK AO2 SLP139 T01330078
KO54 - Weaverville, California, USA
Distance from station: NW 207mi, 332km
Updated: Sat, 25-May-2019 10:15am PDT
Clear
Clear
 Wind from W
Wind: W 3 mph , 6 km/h
Temperature: 55°F , 13°C
Dew Point: 36°F , 2°C
Humidity: 47%
Barometer: 29.88 inHg , 1011.9 hPa
Clouds: Clear
Visibility: 10 miles , 16 km
2019/05/25 17:15 KO54 251715Z AUTO 26003KT 10SM CLR 13/02 A2988 RMK AO1
 
KO86 - Trinity Center, California, USA
Distance from station: NW 207mi, 333km
Updated: Sat, 25-May-2019 10:15am PDT

 Wind from SSE
Wind: SSE 3 mph , 6 km/h
Temperature: 59°F , 15°C
Dew Point: 32°F , 0°C
Humidity: 36%
Barometer: 29.87 inHg , 1011.5 hPa
Visibility: 10 miles , 16 km
2019/05/25 17:15 KO86 251715Z AUTO 15003KT 10SM 15/00 A2987 RMK AO1
KMHS - Mount Shasta, California, USA
Distance from station: NW 209mi, 336km
Updated: Sat, 25-May-2019 9:56am PDT
Clear
Clear
 Wind from varies
Wind: varies 5 mph , 7 km/h
Temperature: 52°F , 11°C
Dew Point: 34°F , 1°C
Humidity: 50%
Barometer: 29.90 inHg , 1012.5 hPa
Clouds: Clear
Visibility: 10 miles , 16 km
2019/05/25 16:56 KMHS 251656Z AUTO VRB04KT 10SM CLR 11/01 A2990 RMK AO2 SLP133 T01060006
 
KPTV - Porterville, California, USA
Distance from station: S 212mi, 341km
Updated: Sat, 25-May-2019 12:56am PDT
NOT Current
Clear
Clear
 Wind from SSE
Wind: SSE 5 mph , 7 km/h
Temperature: 59°F , 15°C
Dew Point: 54°F , 12°C
Humidity: 82%
Barometer: 29.88 inHg , 1011.9 hPa
Clouds: Clear
Visibility: 10 miles , 16 km
2019/05/25 07:56 KPTV 250756Z AUTO 15004KT 10SM CLR 15/12 A2988 RMK AO2 SLP129 T01500122 402610144
KLKV - Lakeview, Oregon, USA
Distance from station: N 219mi, 353km
Updated: Sat, 25-May-2019 9:53am PDT
Clear
Clear
 Wind from varies
Wind: varies 7 mph , 11 km/h
Temperature: 50°F , 10°C
Wind Chill: 47°F , 8°C
Dew Point: 36°F , 2°C
Humidity: 58%
Barometer: 29.90 inHg , 1012.5 hPa
Clouds: Clear
Visibility: 10 miles , 16 km
2019/05/25 16:53 KLKV 251653Z AUTO VRB06KT 10SM CLR 10/02 A2990 RMK AO2 SLP124 T01000017
 
KSIY - Montague/Siskiyo, California, USA
Distance from station: NW 237mi, 382km
Updated: Sat, 25-May-2019 9:53am PDT
Clear
Clear
 Wind from calm
Wind: Calm
Temperature: 54°F , 12°C
Dew Point: 34°F , 1°C
Humidity: 47%
Barometer: 29.94 inHg , 1013.9 hPa
Clouds: Clear
Visibility: 10 miles , 16 km
2019/05/25 16:53 KSIY 251653Z AUTO 00000KT 10SM CLR 12/01 A2994 RMK AO2 SLP143 T01220006
KPRB - Paso Robles, California, USA
Distance from station: SSW 238mi, 383km
Updated: Sat, 25-May-2019 10:26am PDT
Overcast
Overcast
 Wind from SW
Wind: SW 8 mph , 13 km/h
Temperature: 57°F , 14°C
Dew Point: 54°F , 12°C
Humidity: 88%
Barometer: 29.88 inHg , 1011.9 hPa
Clouds: Overcast
Visibility: 10 miles , 16 km
Cloud details: Mostly cloudy 1000 ft
Overcast 1400 ft
2019/05/25 17:26 KPRB 251726Z AUTO 22007KT 10SM BKN010 OVC014 14/12 A2988 RMK AO2 T01440117
 
KLMT - Klamath Falls, Oregon, USA
Distance from station: NNW 239mi, 385km
Updated: Sat, 25-May-2019 9:53am PDT
Clear
Clear
 Wind from varies
Wind: varies 3 mph , 6 km/h
Temperature: 48°F , 9°C
Dew Point: 34°F , 1°C
Humidity: 58%
Barometer: 29.91 inHg , 1012.9 hPa
Clouds: Clear
Visibility: 10 miles , 16 km
2019/05/25 16:53 KLMT 251653Z VRB03KT 10SM CLR 09/01 A2991 RMK AO2 SLP114 T00940006
KEKO - Elko, Nevada, USA
Distance from station: ENE 242mi, 390km
Updated: Sat, 25-May-2019 10:22am PDT
Light rain, Overcast
Light rain, Overcast
 Wind from W
Wind: W 8 mph , 13 km/h
Temperature: 46°F , 8°C
Wind Chill: 42°F , 6°C
Dew Point: 39°F , 4°C
Humidity: 76%
Barometer: 29.91 inHg , 1012.9 hPa
Summary: Light rain
Clouds: Overcast
Visibility: 10 miles , 16 km
Cloud details: Partly cloudy 1300 ft
Mostly cloudy 3400 ft
Overcast 5000 ft
2019/05/25 17:22 KEKO 251722Z AUTO 26007KT 10SM -RA SCT013 BKN034 OVC050 08/04 A2991 RMK AO2 P0000 T00780044 $
 
KBFL - Bakersfield, California, USA
Distance from station: S 252mi, 405km
Updated: Sat, 25-May-2019 9:54am PDT
Clear
Clear
 Wind from calm
Wind: Calm
Temperature: 73°F , 23°C
Dew Point: 52°F , 11°C
Humidity: 47%
Barometer: 29.82 inHg , 1009.8 hPa
Clouds: Clear
Visibility: 10 miles , 16 km
2019/05/25 16:54 KBFL 251654Z 00000KT 10SM CLR 23/11 A2982 RMK AO2 SLP093 T02330111
KFOT - Fortuna, California, USA
Distance from station: WNW 256mi, 413km
Updated: Sat, 25-May-2019 10:15am PDT
Partly cloudy
Partly cloudy
 Wind from NNW
Wind: NNW 12 mph , 19 km/h, Gust: 17 mph , 28 km/h
Temperature: 55°F , 13°C
Dew Point: 46°F , 8°C
Humidity: 72%
Barometer: 29.93 inHg , 1013.5 hPa
Clouds: Partly cloudy
Visibility: 10 miles , 16 km
Cloud details: Partly cloudy 2700 ft
2019/05/25 17:15 KFOT 251715Z AUTO 33010G15KT 10SM SCT027 13/08 A2993 RMK AO1
 
KNID - China Lake (naf), California, USA
Distance from station: SSE 259mi, 417km
Updated: Sat, 25-May-2019 9:56am PDT
Clear
Clear
 Wind from S
Wind: S 9 mph , 15 km/h
Temperature: 73°F , 23°C
Dew Point: 43°F , 6°C
Humidity: 33%
Barometer: 29.80 inHg , 1009.1 hPa
Clouds: Clear
Visibility: 10 miles , 16 km
2019/05/25 16:56 KNID 251656Z AUTO 19008KT 10SM CLR 23/06 A2980 RMK AO2 SLP078 T02280056 $
KDRA - Desert R/Mercury, Nevada, USA
Distance from station: SE 262mi, 421km
Updated: Sat, 25-May-2019 9:53am PDT
Clear
Clear
 Wind from S
Wind: S 15 mph , 24 km/h
Temperature: 72°F , 22°C
Dew Point: 36°F , 2°C
Humidity: 27%
Barometer: 29.84 inHg , 1010.5 hPa
Clouds: Clear
Visibility: 10 miles , 16 km
2019/05/25 16:53 KDRA 251653Z AUTO 18013KT 10SM CLR 22/02 A2984 RMK AO2 SLP068 T02220017 $
 
KELY - Ely, Nevada, USA
Distance from station: E 262mi, 421km
Updated: Sat, 25-May-2019 9:53am PDT
Mostly cloudy
Mostly cloudy
 Wind from SSE
Wind: SSE 18 mph , 30 km/h, Gust: 24 mph , 39 km/h
Temperature: 54°F , 12°C
Dew Point: 41°F , 5°C
Humidity: 63%
Barometer: 29.91 inHg , 1012.9 hPa
Clouds: Mostly cloudy
Visibility: 10 miles , 16 km
Cloud details: Few Clouds 5000 ft
Partly cloudy 8000 ft
Mostly cloudy 9500 ft
2019/05/25 16:53 KELY 251653Z AUTO 15016G21KT 10SM FEW050 SCT080 BKN095 12/05 A2991 RMK AO2 LTG DSNT NW SLP077 T01170050
KREO - Rome, Oregon, USA
Distance from station: NNE 263mi, 424km
Updated: Sat, 25-May-2019 9:52am PDT

 Wind from varies
Wind: varies 3 mph , 6 km/h
Temperature: 50°F , 10°C
Dew Point: 45°F , 7°C
Humidity: 82%
Barometer: 29.89 inHg , 1012.2 hPa
2019/05/25 16:52 KREO 251652Z AUTO VRB03KT 10/07 A2989 RMK AO1 SLP116 P0001 T01000067
 
KACV - Arcata/Eureka, California, USA
Distance from station: WNW 268mi, 431km
Updated: Sat, 25-May-2019 9:53am PDT
Clear
Clear
 Wind from NNW
Wind: NNW 17 mph , 28 km/h
Temperature: 55°F , 13°C
Dew Point: 46°F , 8°C
Humidity: 72%
Barometer: 29.93 inHg , 1013.5 hPa
Clouds: Clear
Visibility: 10 miles , 16 km
2019/05/25 16:53 KACV 251653Z AUTO 33015KT 10SM CLR 13/08 A2993 RMK AO2 SLP139 T01330078
KSBP - San Luis Obispo, California, USA
Distance from station: S 268mi, 431km
Updated: Sat, 25-May-2019 9:56am PDT
Overcast
Overcast
 Wind from calm
Wind: Calm
Temperature: 55°F , 13°C
Dew Point: 52°F , 11°C
Humidity: 88%
Barometer: 29.92 inHg , 1013.2 hPa
Clouds: Overcast
Visibility: 10 miles , 16 km
Cloud details: Overcast 800 ft
2019/05/25 16:56 KSBP 251656Z 00000KT 10SM OVC008 13/11 A2992 RMK AO2 SLP130 T01280106
 
KINS - Indian Springs, Nevada, USA
Distance from station: SE 279mi, 449km
Updated: Sat, 25-May-2019 9:58am PDT
Partly cloudy
Partly cloudy
 Wind from E
Wind: E 12 mph , 19 km/h
Temperature: 70°F , 21°C
Dew Point: 36°F , 2°C
Humidity: 29%
Barometer: 29.84 inHg , 1010.5 hPa
Clouds: Partly cloudy
Visibility: 10 miles , 16 km
Cloud details: Partly cloudy 9000 ft
2019/05/25 16:58 KINS 251658Z AUTO 08010KT 10SM SCT090 21/02 A2984 RMK AO2 SLP070 T02060024 $
KTSP - Tehachapi, California, USA
Distance from station: SSE 279mi, 449km
Updated: Sat, 25-May-2019 10:15am PDT
Few Clouds
Few Clouds
 Wind from NW
Wind: NW 10 mph , 17 km/h
Temperature: 63°F , 17°C
Dew Point: 48°F , 9°C
Humidity: 59%
Barometer: 29.91 inHg , 1012.9 hPa
Clouds: Few Clouds
Visibility: 10 miles , 16 km
Cloud details: Few Clouds 2600 ft
Few Clouds 3300 ft
2019/05/25 17:15 KTSP 251715Z AUTO 31009KT 10SM FEW026 FEW033 17/09 A2991 RMK AO2
 
KMFR - Medford, Oregon, USA
Distance from station: NW 284mi, 457km
Updated: Sat, 25-May-2019 9:53am PDT
Partly cloudy
Partly cloudy
 Wind from varies
Wind: varies 3 mph , 6 km/h
Temperature: 54°F , 12°C
Dew Point: 36°F , 2°C
Humidity: 51%
Barometer: 29.97 inHg , 1014.9 hPa
Clouds: Partly cloudy
Visibility: 10 miles , 16 km
Cloud details: Partly cloudy 6500 ft
2019/05/25 16:53 KMFR 251653Z VRB03KT 10SM SCT065 12/02 A2997 RMK AO2 SLP147 T01220017
KMHV - Mojave, California, USA
Distance from station: SSE 288mi, 463km
Updated: Sat, 25-May-2019 10:00am PDT
Clear
Clear
 Wind from W
Wind: W 10 mph , 17 km/h, Gust: 18 mph , 30 km/h
Temperature: 68°F , 20°C
Dew Point: 45°F , 7°C
Humidity: 43%
Barometer: 29.86 inHg , 1011.2 hPa
Clouds: Clear
Visibility: 10 miles , 16 km
2019/05/25 17:00 KMHV 251700Z AUTO 27009G16KT 10SM CLR 20/07 A2986 RMK A01
 
KSMX - Santa Maria, California, USA
Distance from station: S 289mi, 465km
Updated: Sat, 25-May-2019 9:51am PDT
Overcast
Overcast
 Wind from WSW
Wind: WSW 5 mph , 7 km/h
Temperature: 57°F , 14°C
Dew Point: 54°F , 12°C
Humidity: 88%
Barometer: 29.92 inHg , 1013.2 hPa
Clouds: Overcast
Visibility: 9 miles , 14 km
Cloud details: Overcast 800 ft
2019/05/25 16:51 KSMX 251651Z 24004KT 9SM OVC008 14/12 A2992 RMK AO2 SLP134 T01440117
K9L2 - Edwards N-Aux, California, USA
Distance from station: SSE 299mi, 482km
Updated: Sat, 25-May-2019 9:58am PDT
Clear
Clear
 Wind from SSW
Wind: SSW 12 mph , 19 km/h
Temperature: 70°F , 21°C
Dew Point: 43°F , 6°C
Humidity: 38%
Barometer: 29.84 inHg , 1010.5 hPa
Clouds: Clear
Visibility: 8 miles , 13 km
2019/05/25 16:58 K9L2 251658Z AUTO 20010KT 8SM CLR 21/06 A2984 RMK AO2 SLP087 T02120063
Honor Flight NV - Honoring all of our Veterans CoCoRaHS (Community Collaborative Rain, Hail and Snow Network) Station Number: NV-DG-2 Live Lightning Map - USA Reno Skywarn Spotter ID: DO21 AlertID Southwestern Weather Network Carson Valley Community Food Closet - providing for the needs of our community